Accueil
METAR-TAF:

METAR-TAF

Aéroports :

Tchita, Russie

latitude: 52-05N, longitude: 113-29E, altitude: 685 m

Observation

Le bulletin a été fait il y a 38 minutes, à 23:30 UTC
Vent 2 kt de direction variable
Température -21°C
Humidité 70%
Pression 1016 hPa
Visibilité 10 km ou plus

METAR: UIAA 222330Z VRB01MPS 9999 NSC M21/M25 Q1016 R29/70D NOSIG RMK QFE703/0938

Heure: 09:08 (00:08 UTC)

Prévision

Le bulletin a été fait il y a 1 heure et 8 minutes, à 23:00 UTC
Prévision valable du 23 à 00 UTC au 23 à 24 UTC
Vent 6 kt de nord-ouest
Visibilité 10 km ou plus

TAF: UIAA 222300Z 2300/2324 31003MPS 9999 NSC

Observations et prévisions météorologiques de plus de 4000 aéroports (messages METAR et TAF).

Les stations disponibles sont représentées par des disques jaunes et rouges sur la carte.

Passer la souris dessus pour voir le nom de la station.

Cliquer dessus pour voir les observations et prévisions météorologiques.

Pour changer de carte: cliquez sur les boutons verts avec une croix noire pour zoomer, sur le bouton vert avec un tiret pour effectuer un zoom arrière, ou sur les flèches vertes pour les cartes adjacentes.


METAR-TAF: